Overview Statistics Trail Chart Weather Telemetry Raw packets
 

This is the latest recevied weather packets stored in our database for station/object WY6Y-13. If no packets are shown the sender has not sent any weather packets the latest 10 day(s).

<< 51 52 53 54 55 56 57 >>
Time Temp. Humidity Pressure Rain* Wind** Luminosity Snow
1787784094 35.56° C 49% 1015.2 hPa 0 mm - - -
1787783493 36.67° C 47% 1015.2 hPa 0 mm - - -
1787782891 35.56° C 49% 1015.2 hPa 0 mm - - -
1787782290 35.56° C 48% 1015.9 hPa 0 mm - - -
1787781689 36.11° C 47% 1015.9 hPa 0 mm - - -
1787781088 34.44° C 53% 1015.9 hPa 0 mm - - -
1787780486 34.44° C 55% 1015.9 hPa 0 mm - - -
1787779885 34.44° C 55% 1015.9 hPa 0 mm - - -
1787779284 34.44° C 54% 1016.3 hPa 0 mm - - -
1787778682 34.44° C 54% 1016.3 hPa 0 mm - - -
1787778081 33.89° C 54% 1016.6 hPa 0 mm - - -
1787777480 33.89° C 57% 1016.6 hPa 0 mm - - -
1787776879 33.89° C 58% 1016.6 hPa 0 mm - - -
1787776277 34.44° C 56% 1016.6 hPa 0 mm - - -
1787775676 33.33° C 59% 1016.9 hPa 0 mm - - -
1787775075 32.78° C 60% 1017.3 hPa 0 mm - - -
1787774474 33.33° C 60% 1017.3 hPa 0 mm - - -
1787773873 32.22° C 63% 1017.6 hPa 0 mm - - -
1787773271 32.22° C 64% 1017.6 hPa 0 mm - - -
1787772670 32.22° C 64% 1017.9 hPa 0 mm - - -
1787772069 32.22° C 65% 1017.9 hPa 0 mm - - -
1787771468 31.67° C 69% 1017.9 hPa 0 mm - - -
1787770866 31.67° C 68% 1018.3 hPa 0 mm - - -
1787770265 31.11° C 70% 1018.3 hPa 0 mm - - -
1787769664 30.56° C 71% 1018.3 hPa 0 mm - - -

* Rain latest hour (hover to see other rain measurements)
** Current wind speed in m/s (hover to see current wind gust speed)